sensor_id;sensor_type;location;lat;lon;timestamp;temperature;humidity
54832;DHT22;40730;53.068;6.572;2023-11-21T00:01:57;9.30;99.90
54832;DHT22;40730;53.068;6.572;2023-11-21T00:04:23;9.30;99.90
54832;DHT22;40730;53.068;6.572;2023-11-21T00:06:50;9.20;99.90
54832;DHT22;40730;53.068;6.572;2023-11-21T00:09:16;9.20;99.90
54832;DHT22;40730;53.068;6.572;2023-11-21T00:11:43;9.20;99.90
54832;DHT22;40730;53.068;6.572;2023-11-21T00:14:10;9.10;99.90
54832;DHT22;40730;53.068;6.572;2023-11-21T00:16:35;9.10;99.90
54832;DHT22;40730;53.068;6.572;2023-11-21T00:19:01;9.00;99.90
54832;DHT22;40730;53.068;6.572;2023-11-21T00:21:26;9.00;99.90
54832;DHT22;40730;53.068;6.572;2023-11-21T00:23:52;8.90;99.90
54832;DHT22;40730;53.068;6.572;2023-11-21T00:26:18;9.00;99.90
54832;DHT22;40730;53.068;6.572;2023-11-21T00:28:43;8.90;99.90
54832;DHT22;40730;53.068;6.572;2023-11-21T00:31:09;8.90;99.90
54832;DHT22;40730;53.068;6.572;2023-11-21T00:33:35;8.80;99.90
54832;DHT22;40730;53.068;6.572;2023-11-21T00:36:00;8.80;99.90
54832;DHT22;40730;53.068;6.572;2023-11-21T00:38:26;8.80;99.90
54832;DHT22;40730;53.068;6.572;2023-11-21T00:40:53;8.80;99.90
54832;DHT22;40730;53.068;6.572;2023-11-21T00:43:24;8.70;99.90
54832;DHT22;40730;53.068;6.572;2023-11-21T00:45:53;8.70;99.90
54832;DHT22;40730;53.068;6.572;2023-11-21T00:48:18;8.70;99.90
54832;DHT22;40730;53.068;6.572;2023-11-21T00:50:44;8.70;99.90
54832;DHT22;40730;53.068;6.572;2023-11-21T00:53:10;8.70;99.90
54832;DHT22;40730;53.068;6.572;2023-11-21T00:55:36;8.80;99.90
54832;DHT22;40730;53.068;6.572;2023-11-21T00:58:05;8.80;99.90
54832;DHT22;40730;53.068;6.572;2023-11-21T01:00:35;8.90;99.90
54832;DHT22;40730;53.068;6.572;2023-11-21T01:03:00;8.90;99.90
54832;DHT22;40730;53.068;6.572;2023-11-21T01:05:26;8.90;99.90
54832;DHT22;40730;53.068;6.572;2023-11-21T01:07:52;9.00;99.90
54832;DHT22;40730;53.068;6.572;2023-11-21T01:10:18;8.90;99.90
54832;DHT22;40730;53.068;6.572;2023-11-21T01:12:43;9.00;99.90
54832;DHT22;40730;53.068;6.572;2023-11-21T01:15:09;9.00;99.90
54832;DHT22;40730;53.068;6.572;2023-11-21T01:17:37;9.00;99.90
54832;DHT22;40730;53.068;6.572;2023-11-21T01:20:04;9.10;99.90
54832;DHT22;40730;53.068;6.572;2023-11-21T01:22:36;9.10;99.90
54832;DHT22;40730;53.068;6.572;2023-11-21T01:25:01;9.10;99.90
54832;DHT22;40730;53.068;6.572;2023-11-21T01:27:29;9.10;99.90
54832;DHT22;40730;53.068;6.572;2023-11-21T01:29:55;9.10;99.90
54832;DHT22;40730;53.068;6.572;2023-11-21T01:32:21;9.10;99.90
54832;DHT22;40730;53.068;6.572;2023-11-21T01:34:47;9.10;99.90
54832;DHT22;40730;53.068;6.572;2023-11-21T01:37:13;9.10;99.90
54832;DHT22;40730;53.068;6.572;2023-11-21T01:39:39;9.10;99.90
54832;DHT22;40730;53.068;6.572;2023-11-21T01:42:05;9.10;99.90
54832;DHT22;40730;53.068;6.572;2023-11-21T01:44:31;9.10;99.90
54832;DHT22;40730;53.068;6.572;2023-11-21T01:46:57;9.10;99.90
54832;DHT22;40730;53.068;6.572;2023-11-21T01:49:23;9.10;99.90
54832;DHT22;40730;53.068;6.572;2023-11-21T01:51:49;9.10;99.90
54832;DHT22;40730;53.068;6.572;2023-11-21T01:54:17;9.10;99.90
54832;DHT22;40730;53.068;6.572;2023-11-21T01:56:46;9.10;99.90
54832;DHT22;40730;53.068;6.572;2023-11-21T01:59:15;9.10;99.90
54832;DHT22;40730;53.068;6.572;2023-11-21T02:01:41;9.10;99.90
54832;DHT22;40730;53.068;6.572;2023-11-21T02:04:07;9.10;99.90
54832;DHT22;40730;53.068;6.572;2023-11-21T02:06:33;9.10;99.90
54832;DHT22;40730;53.068;6.572;2023-11-21T02:08:59;9.20;99.90
54832;DHT22;40730;53.068;6.572;2023-11-21T02:11:25;9.20;99.90
54832;DHT22;40730;53.068;6.572;2023-11-21T02:13:51;9.20;99.90
54832;DHT22;40730;53.068;6.572;2023-11-21T02:16:19;9.20;99.90
54832;DHT22;40730;53.068;6.572;2023-11-21T02:18:47;9.20;99.90
54832;DHT22;40730;53.068;6.572;2023-11-21T02:21:14;9.20;99.90
54832;DHT22;40730;53.068;6.572;2023-11-21T02:23:39;9.20;99.90
54832;DHT22;40730;53.068;6.572;2023-11-21T02:26:10;9.20;99.90
54832;DHT22;40730;53.068;6.572;2023-11-21T02:28:36;9.20;99.90
54832;DHT22;40730;53.068;6.572;2023-11-21T02:31:02;9.20;99.90
54832;DHT22;40730;53.068;6.572;2023-11-21T02:33:30;9.30;99.90
54832;DHT22;40730;53.068;6.572;2023-11-21T02:36:02;9.30;99.90
54832;DHT22;40730;53.068;6.572;2023-11-21T02:38:27;9.20;99.90
54832;DHT22;40730;53.068;6.572;2023-11-21T02:40:53;9.30;99.90
54832;DHT22;40730;53.068;6.572;2023-11-21T02:43:18;9.30;99.90
54832;DHT22;40730;53.068;6.572;2023-11-21T02:45:44;9.30;99.90
54832;DHT22;40730;53.068;6.572;2023-11-21T02:48:10;9.30;99.90
54832;DHT22;40730;53.068;6.572;2023-11-21T02:50:35;9.30;99.90
54832;DHT22;40730;53.068;6.572;2023-11-21T02:53:01;9.30;99.90
54832;DHT22;40730;53.068;6.572;2023-11-21T02:55:27;9.30;99.90
54832;DHT22;40730;53.068;6.572;2023-11-21T02:57:54;9.30;99.90
54832;DHT22;40730;53.068;6.572;2023-11-21T03:00:21;9.30;99.90
54832;DHT22;40730;53.068;6.572;2023-11-21T03:02:49;9.30;99.90
54832;DHT22;40730;53.068;6.572;2023-11-21T03:05:15;9.30;99.90
54832;DHT22;40730;53.068;6.572;2023-11-21T03:07:40;9.30;99.90
54832;DHT22;40730;53.068;6.572;2023-11-21T03:10:07;9.30;99.90
54832;DHT22;40730;53.068;6.572;2023-11-21T03:12:37;9.30;99.90
54832;DHT22;40730;53.068;6.572;2023-11-21T03:15:04;9.30;99.90
54832;DHT22;40730;53.068;6.572;2023-11-21T03:17:31;9.30;99.90
54832;DHT22;40730;53.068;6.572;2023-11-21T03:19:56;9.40;99.90
54832;DHT22;40730;53.068;6.572;2023-11-21T03:22:22;9.30;99.90
54832;DHT22;40730;53.068;6.572;2023-11-21T03:24:48;9.30;99.90
54832;DHT22;40730;53.068;6.572;2023-11-21T03:27:14;9.30;99.90
54832;DHT22;40730;53.068;6.572;2023-11-21T03:29:40;9.30;99.90
54832;DHT22;40730;53.068;6.572;2023-11-21T03:32:05;9.30;99.90
54832;DHT22;40730;53.068;6.572;2023-11-21T03:34:32;9.30;99.90
54832;DHT22;40730;53.068;6.572;2023-11-21T03:36:58;9.30;99.90
54832;DHT22;40730;53.068;6.572;2023-11-21T03:39:24;9.40;99.90
54832;DHT22;40730;53.068;6.572;2023-11-21T03:41:51;9.30;99.90
54832;DHT22;40730;53.068;6.572;2023-11-21T03:44:17;9.40;99.90
54832;DHT22;40730;53.068;6.572;2023-11-21T03:46:43;9.40;99.90
54832;DHT22;40730;53.068;6.572;2023-11-21T03:49:09;9.30;99.90
54832;DHT22;40730;53.068;6.572;2023-11-21T03:51:36;9.40;99.90
54832;DHT22;40730;53.068;6.572;2023-11-21T03:54:02;9.30;99.90
54832;DHT22;40730;53.068;6.572;2023-11-21T03:56:28;9.30;99.90
54832;DHT22;40730;53.068;6.572;2023-11-21T03:58:54;9.30;99.90
54832;DHT22;40730;53.068;6.572;2023-11-21T04:01:22;9.30;99.90
54832;DHT22;40730;53.068;6.572;2023-11-21T04:03:51;9.30;99.90
54832;DHT22;40730;53.068;6.572;2023-11-21T04:06:17;9.30;99.90
54832;DHT22;40730;53.068;6.572;2023-11-21T04:08:44;9.30;99.90
54832;DHT22;40730;53.068;6.572;2023-11-21T04:11:10;9.30;99.90
54832;DHT22;40730;53.068;6.572;2023-11-21T04:13:40;9.30;99.90
54832;DHT22;40730;53.068;6.572;2023-11-21T04:16:07;9.40;99.90
54832;DHT22;40730;53.068;6.572;2023-11-21T04:18:34;9.30;99.90
54832;DHT22;40730;53.068;6.572;2023-11-21T04:21:00;9.30;99.90
54832;DHT22;40730;53.068;6.572;2023-11-21T04:23:27;9.30;99.90
54832;DHT22;40730;53.068;6.572;2023-11-21T04:25:52;9.30;99.90
54832;DHT22;40730;53.068;6.572;2023-11-21T04:28:19;9.30;99.90
54832;DHT22;40730;53.068;6.572;2023-11-21T04:30:45;9.30;99.90
54832;DHT22;40730;53.068;6.572;2023-11-21T04:33:10;9.30;99.90
54832;DHT22;40730;53.068;6.572;2023-11-21T04:35:36;9.30;99.90
54832;DHT22;40730;53.068;6.572;2023-11-21T04:38:02;9.30;99.90
54832;DHT22;40730;53.068;6.572;2023-11-21T04:40:28;9.20;99.90
54832;DHT22;40730;53.068;6.572;2023-11-21T04:42:53;9.30;99.90
54832;DHT22;40730;53.068;6.572;2023-11-21T04:45:19;9.30;99.90
54832;DHT22;40730;53.068;6.572;2023-11-21T04:47:44;9.30;99.90
54832;DHT22;40730;53.068;6.572;2023-11-21T04:50:10;9.20;99.90
54832;DHT22;40730;53.068;6.572;2023-11-21T04:52:36;9.20;99.90
54832;DHT22;40730;53.068;6.572;2023-11-21T04:55:01;9.20;99.90
54832;DHT22;40730;53.068;6.572;2023-11-21T04:57:27;9.20;99.90
54832;DHT22;40730;53.068;6.572;2023-11-21T04:59:54;9.20;99.90
54832;DHT22;40730;53.068;6.572;2023-11-21T05:02:19;9.20;99.90
54832;DHT22;40730;53.068;6.572;2023-11-21T05:04:47;9.20;99.90
54832;DHT22;40730;53.068;6.572;2023-11-21T05:07:12;9.20;99.90
54832;DHT22;40730;53.068;6.572;2023-11-21T05:09:44;9.20;99.90
54832;DHT22;40730;53.068;6.572;2023-11-21T05:12:12;9.20;99.90
54832;DHT22;40730;53.068;6.572;2023-11-21T05:14:37;9.20;99.90
54832;DHT22;40730;53.068;6.572;2023-11-21T05:17:03;9.30;99.90
54832;DHT22;40730;53.068;6.572;2023-11-21T05:19:29;9.20;99.90
54832;DHT22;40730;53.068;6.572;2023-11-21T05:21:55;9.20;99.90
54832;DHT22;40730;53.068;6.572;2023-11-21T05:24:21;9.20;99.90
54832;DHT22;40730;53.068;6.572;2023-11-21T05:26:46;9.30;99.90
54832;DHT22;40730;53.068;6.572;2023-11-21T05:29:12;9.20;99.90
54832;DHT22;40730;53.068;6.572;2023-11-21T05:31:37;9.20;99.90
54832;DHT22;40730;53.068;6.572;2023-11-21T05:34:04;9.20;99.90
54832;DHT22;40730;53.068;6.572;2023-11-21T05:36:30;9.20;99.90
54832;DHT22;40730;53.068;6.572;2023-11-21T05:38:56;9.20;99.90
54832;DHT22;40730;53.068;6.572;2023-11-21T05:41:22;9.20;99.90
54832;DHT22;40730;53.068;6.572;2023-11-21T05:43:48;9.20;99.90
54832;DHT22;40730;53.068;6.572;2023-11-21T05:46:14;9.20;99.90
54832;DHT22;40730;53.068;6.572;2023-11-21T05:48:39;9.20;99.90
54832;DHT22;40730;53.068;6.572;2023-11-21T05:51:06;9.30;99.90
54832;DHT22;40730;53.068;6.572;2023-11-21T05:53:32;9.30;99.90
54832;DHT22;40730;53.068;6.572;2023-11-21T05:55:58;9.30;99.90
54832;DHT22;40730;53.068;6.572;2023-11-21T05:58:23;9.30;99.90
54832;DHT22;40730;53.068;6.572;2023-11-21T06:00:49;9.30;99.90
54832;DHT22;40730;53.068;6.572;2023-11-21T06:03:15;9.30;99.90
54832;DHT22;40730;53.068;6.572;2023-11-21T06:05:40;9.30;99.90
54832;DHT22;40730;53.068;6.572;2023-11-21T06:08:06;9.30;99.90
54832;DHT22;40730;53.068;6.572;2023-11-21T06:10:32;9.30;99.90
54832;DHT22;40730;53.068;6.572;2023-11-21T06:12:58;9.30;99.90
54832;DHT22;40730;53.068;6.572;2023-11-21T06:15:24;9.30;99.90
54832;DHT22;40730;53.068;6.572;2023-11-21T06:17:50;9.30;99.90
54832;DHT22;40730;53.068;6.572;2023-11-21T06:20:18;9.30;99.90
54832;DHT22;40730;53.068;6.572;2023-11-21T06:22:47;9.30;99.90
54832;DHT22;40730;53.068;6.572;2023-11-21T06:25:14;9.30;99.90
54832;DHT22;40730;53.068;6.572;2023-11-21T06:27:41;9.20;99.90
54832;DHT22;40730;53.068;6.572;2023-11-21T06:30:07;9.20;99.90
54832;DHT22;40730;53.068;6.572;2023-11-21T06:32:38;9.20;99.90
54832;DHT22;40730;53.068;6.572;2023-11-21T06:35:04;9.30;99.90
54832;DHT22;40730;53.068;6.572;2023-11-21T06:37:31;9.20;99.90
54832;DHT22;40730;53.068;6.572;2023-11-21T06:39:57;9.20;99.90
54832;DHT22;40730;53.068;6.572;2023-11-21T06:42:24;9.30;99.90
54832;DHT22;40730;53.068;6.572;2023-11-21T06:44:49;9.30;99.90
54832;DHT22;40730;53.068;6.572;2023-11-21T06:47:17;9.30;99.90
54832;DHT22;40730;53.068;6.572;2023-11-21T06:49:43;9.30;99.90
54832;DHT22;40730;53.068;6.572;2023-11-21T06:52:09;9.30;99.90
54832;DHT22;40730;53.068;6.572;2023-11-21T06:54:36;9.20;99.90
54832;DHT22;40730;53.068;6.572;2023-11-21T06:57:02;9.30;99.90
54832;DHT22;40730;53.068;6.572;2023-11-21T06:59:31;9.30;99.90
54832;DHT22;40730;53.068;6.572;2023-11-21T07:01:57;9.30;99.90
54832;DHT22;40730;53.068;6.572;2023-11-21T07:04:22;9.30;99.90
54832;DHT22;40730;53.068;6.572;2023-11-21T07:06:49;9.30;99.90
54832;DHT22;40730;53.068;6.572;2023-11-21T07:09:15;9.30;99.90
54832;DHT22;40730;53.068;6.572;2023-11-21T07:11:41;9.30;99.90
54832;DHT22;40730;53.068;6.572;2023-11-21T07:14:07;9.20;99.90
54832;DHT22;40730;53.068;6.572;2023-11-21T07:16:35;9.20;99.90
54832;DHT22;40730;53.068;6.572;2023-11-21T07:19:09;9.20;99.90
54832;DHT22;40730;53.068;6.572;2023-11-21T07:21:35;9.20;99.90
54832;DHT22;40730;53.068;6.572;2023-11-21T07:24:02;9.20;99.90
54832;DHT22;40730;53.068;6.572;2023-11-21T07:26:28;9.10;99.90
54832;DHT22;40730;53.068;6.572;2023-11-21T07:28:54;9.10;99.90
54832;DHT22;40730;53.068;6.572;2023-11-21T07:31:20;9.10;99.90
54832;DHT22;40730;53.068;6.572;2023-11-21T07:33:46;9.10;99.90
54832;DHT22;40730;53.068;6.572;2023-11-21T07:36:15;9.10;99.90
54832;DHT22;40730;53.068;6.572;2023-11-21T07:38:42;9.10;99.90
54832;DHT22;40730;53.068;6.572;2023-11-21T07:41:08;9.10;99.90
54832;DHT22;40730;53.068;6.572;2023-11-21T07:43:35;9.10;99.90
54832;DHT22;40730;53.068;6.572;2023-11-21T07:46:01;9.00;99.90
54832;DHT22;40730;53.068;6.572;2023-11-21T07:48:31;9.10;99.90
54832;DHT22;40730;53.068;6.572;2023-11-21T07:50:57;9.10;99.90
54832;DHT22;40730;53.068;6.572;2023-11-21T07:53:27;9.00;99.90
54832;DHT22;40730;53.068;6.572;2023-11-21T07:55:56;9.00;99.90
54832;DHT22;40730;53.068;6.572;2023-11-21T07:58:21;9.10;99.90
54832;DHT22;40730;53.068;6.572;2023-11-21T08:00:47;9.00;99.90
54832;DHT22;40730;53.068;6.572;2023-11-21T08:03:16;9.00;99.90
54832;DHT22;40730;53.068;6.572;2023-11-21T08:05:42;9.00;99.90
54832;DHT22;40730;53.068;6.572;2023-11-21T08:08:08;9.00;99.90
54832;DHT22;40730;53.068;6.572;2023-11-21T08:10:33;8.90;99.90
54832;DHT22;40730;53.068;6.572;2023-11-21T08:13:01;8.90;99.90
54832;DHT22;40730;53.068;6.572;2023-11-21T08:15:27;8.90;99.90
54832;DHT22;40730;53.068;6.572;2023-11-21T08:17:52;8.90;99.90
54832;DHT22;40730;53.068;6.572;2023-11-21T08:20:18;8.90;99.90
54832;DHT22;40730;53.068;6.572;2023-11-21T08:22:44;8.80;99.90
54832;DHT22;40730;53.068;6.572;2023-11-21T08:25:10;8.80;99.90
54832;DHT22;40730;53.068;6.572;2023-11-21T08:27:35;8.80;99.90
54832;DHT22;40730;53.068;6.572;2023-11-21T08:30:03;8.70;99.90
54832;DHT22;40730;53.068;6.572;2023-11-21T08:32:29;8.70;99.90
54832;DHT22;40730;53.068;6.572;2023-11-21T08:34:57;8.60;99.90
54832;DHT22;40730;53.068;6.572;2023-11-21T08:37:23;8.70;99.90
54832;DHT22;40730;53.068;6.572;2023-11-21T08:39:49;8.70;99.90
54832;DHT22;40730;53.068;6.572;2023-11-21T08:42:15;8.70;99.90
54832;DHT22;40730;53.068;6.572;2023-11-21T08:44:41;8.70;99.90
54832;DHT22;40730;53.068;6.572;2023-11-21T08:47:07;8.70;99.90
54832;DHT22;40730;53.068;6.572;2023-11-21T08:49:33;8.60;99.90
54832;DHT22;40730;53.068;6.572;2023-11-21T08:51:58;8.60;99.90
54832;DHT22;40730;53.068;6.572;2023-11-21T08:54:25;8.60;99.90
54832;DHT22;40730;53.068;6.572;2023-11-21T08:56:54;8.60;99.90
54832;DHT22;40730;53.068;6.572;2023-11-21T08:59:20;8.60;99.90
54832;DHT22;40730;53.068;6.572;2023-11-21T09:01:47;8.60;99.90
54832;DHT22;40730;53.068;6.572;2023-11-21T09:04:13;8.60;99.90
54832;DHT22;40730;53.068;6.572;2023-11-21T09:06:41;8.60;99.90
54832;DHT22;40730;53.068;6.572;2023-11-21T09:09:07;8.60;99.90
54832;DHT22;40730;53.068;6.572;2023-11-21T09:11:33;8.60;99.90
54832;DHT22;40730;53.068;6.572;2023-11-21T09:14:00;8.60;99.90
54832;DHT22;40730;53.068;6.572;2023-11-21T09:16:26;8.60;99.90
54832;DHT22;40730;53.068;6.572;2023-11-21T09:18:51;8.60;99.90
54832;DHT22;40730;53.068;6.572;2023-11-21T09:21:17;8.50;99.90
54832;DHT22;40730;53.068;6.572;2023-11-21T09:23:44;8.50;99.90
54832;DHT22;40730;53.068;6.572;2023-11-21T09:26:10;8.50;99.90
54832;DHT22;40730;53.068;6.572;2023-11-21T09:28:35;8.50;99.90
54832;DHT22;40730;53.068;6.572;2023-11-21T09:31:06;8.50;99.90
54832;DHT22;40730;53.068;6.572;2023-11-21T09:33:34;8.50;99.90
54832;DHT22;40730;53.068;6.572;2023-11-21T09:36:00;8.50;99.90
54832;DHT22;40730;53.068;6.572;2023-11-21T09:38:26;8.50;99.90
54832;DHT22;40730;53.068;6.572;2023-11-21T09:40:54;8.40;99.90
54832;DHT22;40730;53.068;6.572;2023-11-21T09:43:21;8.50;99.90
54832;DHT22;40730;53.068;6.572;2023-11-21T09:45:50;8.50;99.90
54832;DHT22;40730;53.068;6.572;2023-11-21T09:48:20;8.50;99.90
54832;DHT22;40730;53.068;6.572;2023-11-21T09:50:47;8.50;99.90
54832;DHT22;40730;53.068;6.572;2023-11-21T09:53:17;8.50;99.90
54832;DHT22;40730;53.068;6.572;2023-11-21T09:55:44;8.50;99.90
54832;DHT22;40730;53.068;6.572;2023-11-21T09:58:11;8.60;99.90
54832;DHT22;40730;53.068;6.572;2023-11-21T10:00:43;8.60;99.90
54832;DHT22;40730;53.068;6.572;2023-11-21T10:03:10;8.60;99.90
54832;DHT22;40730;53.068;6.572;2023-11-21T10:05:37;8.70;99.90
54832;DHT22;40730;53.068;6.572;2023-11-21T10:08:10;8.70;99.90
54832;DHT22;40730;53.068;6.572;2023-11-21T10:10:46;8.70;99.90
54832;DHT22;40730;53.068;6.572;2023-11-21T10:13:14;8.80;99.90
54832;DHT22;40730;53.068;6.572;2023-11-21T10:15:43;8.80;99.90
54832;DHT22;40730;53.068;6.572;2023-11-21T10:18:14;8.80;99.90
54832;DHT22;40730;53.068;6.572;2023-11-21T10:20:41;8.80;99.90
54832;DHT22;40730;53.068;6.572;2023-11-21T10:23:07;8.80;99.90
54832;DHT22;40730;53.068;6.572;2023-11-21T10:25:36;8.70;99.90
54832;DHT22;40730;53.068;6.572;2023-11-21T10:28:03;8.70;99.90
54832;DHT22;40730;53.068;6.572;2023-11-21T10:30:36;8.70;99.90
54832;DHT22;40730;53.068;6.572;2023-11-21T10:33:04;8.70;99.90
54832;DHT22;40730;53.068;6.572;2023-11-21T10:35:43;8.80;99.90
54832;DHT22;40730;53.068;6.572;2023-11-21T10:38:12;8.90;99.90
54832;DHT22;40730;53.068;6.572;2023-11-21T10:40:42;8.90;99.90
54832;DHT22;40730;53.068;6.572;2023-11-21T10:43:10;9.00;99.90
54832;DHT22;40730;53.068;6.572;2023-11-21T10:45:37;8.90;99.90
54832;DHT22;40730;53.068;6.572;2023-11-21T10:48:05;8.90;99.90
54832;DHT22;40730;53.068;6.572;2023-11-21T10:50:34;8.90;99.90
54832;DHT22;40730;53.068;6.572;2023-11-21T10:53:02;8.80;99.90
54832;DHT22;40730;53.068;6.572;2023-11-21T10:55:29;8.80;99.90
54832;DHT22;40730;53.068;6.572;2023-11-21T10:57:58;8.80;99.90
54832;DHT22;40730;53.068;6.572;2023-11-21T11:00:26;8.80;99.90
54832;DHT22;40730;53.068;6.572;2023-11-21T11:02:53;8.90;99.90
54832;DHT22;40730;53.068;6.572;2023-11-21T11:05:23;9.00;99.90
54832;DHT22;40730;53.068;6.572;2023-11-21T11:08:01;9.30;99.90
54832;DHT22;40730;53.068;6.572;2023-11-21T11:10:28;9.50;99.90
54832;DHT22;40730;53.068;6.572;2023-11-21T11:12:55;9.50;99.90
54832;DHT22;40730;53.068;6.572;2023-11-21T11:15:23;9.40;99.90
54832;DHT22;40730;53.068;6.572;2023-11-21T11:17:49;9.30;99.90
54832;DHT22;40730;53.068;6.572;2023-11-21T11:20:16;9.20;99.90
54832;DHT22;40730;53.068;6.572;2023-11-21T11:31:33;9.10;99.90
54832;DHT22;40730;53.068;6.572;2023-11-21T11:34:07;9.00;99.90
54832;DHT22;40730;53.068;6.572;2023-11-21T11:36:44;9.00;99.90
54832;DHT22;40730;53.068;6.572;2023-11-21T11:39:29;9.00;99.90
54832;DHT22;40730;53.068;6.572;2023-11-21T11:41:59;9.00;99.90
54832;DHT22;40730;53.068;6.572;2023-11-21T11:47:27;9.00;99.90
54832;DHT22;40730;53.068;6.572;2023-11-21T11:50:08;9.00;99.90
54832;DHT22;40730;53.068;6.572;2023-11-21T11:52:42;9.20;99.90
54832;DHT22;40730;53.068;6.572;2023-11-21T11:55:10;9.40;99.90
54832;DHT22;40730;53.068;6.572;2023-11-21T11:57:37;9.60;99.90
54832;DHT22;40730;53.068;6.572;2023-11-21T12:00:11;9.70;99.90
54832;DHT22;40730;53.068;6.572;2023-11-21T12:02:40;9.50;99.90
54832;DHT22;40730;53.068;6.572;2023-11-21T12:05:16;9.40;99.90
54832;DHT22;40730;53.068;6.572;2023-11-21T12:07:51;9.20;99.90
54832;DHT22;40730;53.068;6.572;2023-11-21T12:10:24;9.20;99.90
54832;DHT22;40730;53.068;6.572;2023-11-21T12:12:52;9.20;99.90
54832;DHT22;40730;53.068;6.572;2023-11-21T12:15:19;9.50;99.90
54832;DHT22;40730;53.068;6.572;2023-11-21T12:17:45;9.90;99.90
54832;DHT22;40730;53.068;6.572;2023-11-21T12:20:12;10.30;99.90
54832;DHT22;40730;53.068;6.572;2023-11-21T12:22:47;10.50;99.90
54832;DHT22;40730;53.068;6.572;2023-11-21T12:25:14;10.70;99.90
54832;DHT22;40730;53.068;6.572;2023-11-21T12:27:42;10.80;99.90
54832;DHT22;40730;53.068;6.572;2023-11-21T12:30:09;11.10;99.90
54832;DHT22;40730;53.068;6.572;2023-11-21T12:32:39;11.00;99.90
54832;DHT22;40730;53.068;6.572;2023-11-21T12:35:07;10.80;99.90
54832;DHT22;40730;53.068;6.572;2023-11-21T12:37:33;10.60;99.90
54832;DHT22;40730;53.068;6.572;2023-11-21T12:39:59;10.30;99.90
54832;DHT22;40730;53.068;6.572;2023-11-21T12:42:25;10.00;99.90
54832;DHT22;40730;53.068;6.572;2023-11-21T12:45:12;9.80;99.90
54832;DHT22;40730;53.068;6.572;2023-11-21T12:47:44;10.00;99.90
54832;DHT22;40730;53.068;6.572;2023-11-21T12:50:13;10.20;99.90
54832;DHT22;40730;53.068;6.572;2023-11-21T12:52:45;10.20;99.90
54832;DHT22;40730;53.068;6.572;2023-11-21T12:55:22;10.10;99.90
54832;DHT22;40730;53.068;6.572;2023-11-21T12:57:50;10.20;99.90
54832;DHT22;40730;53.068;6.572;2023-11-21T13:00:18;10.50;99.90
54832;DHT22;40730;53.068;6.572;2023-11-21T13:02:57;10.70;99.90
54832;DHT22;40730;53.068;6.572;2023-11-21T13:05:34;10.80;99.90
54832;DHT22;40730;53.068;6.572;2023-11-21T13:08:02;10.50;99.90
54832;DHT22;40730;53.068;6.572;2023-11-21T13:10:29;10.30;99.90
54832;DHT22;40730;53.068;6.572;2023-11-21T13:13:00;10.00;99.90
54832;DHT22;40730;53.068;6.572;2023-11-21T13:15:29;9.80;99.90
54832;DHT22;40730;53.068;6.572;2023-11-21T13:17:58;9.60;99.90
54832;DHT22;40730;53.068;6.572;2023-11-21T13:20:27;9.60;99.90
54832;DHT22;40730;53.068;6.572;2023-11-21T13:22:55;9.70;99.90
54832;DHT22;40730;53.068;6.572;2023-11-21T13:25:28;10.20;99.90
54832;DHT22;40730;53.068;6.572;2023-11-21T13:27:57;10.90;99.90
54832;DHT22;40730;53.068;6.572;2023-11-21T13:30:24;11.80;99.90
54832;DHT22;40730;53.068;6.572;2023-11-21T13:32:56;12.10;99.90
54832;DHT22;40730;53.068;6.572;2023-11-21T13:35:25;12.50;99.90
54832;DHT22;40730;53.068;6.572;2023-11-21T13:38:09;12.90;99.90
54832;DHT22;40730;53.068;6.572;2023-11-21T13:40:36;13.00;99.90
54832;DHT22;40730;53.068;6.572;2023-11-21T13:43:18;12.90;99.90
54832;DHT22;40730;53.068;6.572;2023-11-21T13:45:47;12.30;99.90
54832;DHT22;40730;53.068;6.572;2023-11-21T13:48:13;11.50;99.90
54832;DHT22;40730;53.068;6.572;2023-11-21T13:50:57;11.00;99.90
54832;DHT22;40730;53.068;6.572;2023-11-21T13:53:36;10.50;99.90
54832;DHT22;40730;53.068;6.572;2023-11-21T13:56:07;10.10;99.90
54832;DHT22;40730;53.068;6.572;2023-11-21T13:58:33;9.90;99.90
54832;DHT22;40730;53.068;6.572;2023-11-21T14:01:17;9.70;99.90
54832;DHT22;40730;53.068;6.572;2023-11-21T14:04:03;9.50;99.90
54832;DHT22;40730;53.068;6.572;2023-11-21T14:06:49;9.30;99.90
54832;DHT22;40730;53.068;6.572;2023-11-21T14:09:22;9.20;99.90
54832;DHT22;40730;53.068;6.572;2023-11-21T14:11:53;9.10;99.90
54832;DHT22;40730;53.068;6.572;2023-11-21T14:14:22;9.00;99.90
54832;DHT22;40730;53.068;6.572;2023-11-21T14:16:49;9.00;99.90
54832;DHT22;40730;53.068;6.572;2023-11-21T14:19:16;9.00;99.90
54832;DHT22;40730;53.068;6.572;2023-11-21T14:21:43;8.90;99.90
54832;DHT22;40730;53.068;6.572;2023-11-21T14:24:09;8.80;99.90
54832;DHT22;40730;53.068;6.572;2023-11-21T14:26:39;8.70;99.90
54832;DHT22;40730;53.068;6.572;2023-11-21T14:29:05;8.70;99.90
54832;DHT22;40730;53.068;6.572;2023-11-21T14:31:31;8.60;99.90
54832;DHT22;40730;53.068;6.572;2023-11-21T14:33:57;8.60;99.90
54832;DHT22;40730;53.068;6.572;2023-11-21T14:36:23;8.60;99.90
54832;DHT22;40730;53.068;6.572;2023-11-21T14:38:49;8.50;99.90
54832;DHT22;40730;53.068;6.572;2023-11-21T14:41:15;8.50;99.90
54832;DHT22;40730;53.068;6.572;2023-11-21T14:43:40;8.50;99.90
54832;DHT22;40730;53.068;6.572;2023-11-21T14:46:07;8.40;99.90
54832;DHT22;40730;53.068;6.572;2023-11-21T14:48:39;8.40;99.90
54832;DHT22;40730;53.068;6.572;2023-11-21T14:51:10;8.40;99.90
54832;DHT22;40730;53.068;6.572;2023-11-21T14:53:39;8.40;99.90
54832;DHT22;40730;53.068;6.572;2023-11-21T14:56:20;8.40;99.90
54832;DHT22;40730;53.068;6.572;2023-11-21T14:58:56;8.30;99.90
54832;DHT22;40730;53.068;6.572;2023-11-21T15:01:23;8.40;99.90
54832;DHT22;40730;53.068;6.572;2023-11-21T15:04:02;8.30;99.90
54832;DHT22;40730;53.068;6.572;2023-11-21T15:06:27;8.00;99.90
54832;DHT22;40730;53.068;6.572;2023-11-21T15:08:57;8.30;99.90
54832;DHT22;40730;53.068;6.572;2023-11-21T15:11:43;8.30;99.90
54832;DHT22;40730;53.068;6.572;2023-11-21T15:14:09;8.20;99.90
54832;DHT22;40730;53.068;6.572;2023-11-21T15:16:38;8.20;99.90
54832;DHT22;40730;53.068;6.572;2023-11-21T15:19:11;8.20;99.90
54832;DHT22;40730;53.068;6.572;2023-11-21T15:21:43;8.20;99.90
54832;DHT22;40730;53.068;6.572;2023-11-21T15:24:09;8.20;99.90
54832;DHT22;40730;53.068;6.572;2023-11-21T15:26:36;8.10;99.90
54832;DHT22;40730;53.068;6.572;2023-11-21T15:29:02;8.20;99.90
54832;DHT22;40730;53.068;6.572;2023-11-21T15:31:27;8.10;99.90
54832;DHT22;40730;53.068;6.572;2023-11-21T15:33:53;8.10;99.90
54832;DHT22;40730;53.068;6.572;2023-11-21T15:36:19;8.10;99.90
54832;DHT22;40730;53.068;6.572;2023-11-21T15:38:46;8.00;99.90
54832;DHT22;40730;53.068;6.572;2023-11-21T15:41:11;8.00;99.90
54832;DHT22;40730;53.068;6.572;2023-11-21T15:43:37;8.00;99.90
54832;DHT22;40730;53.068;6.572;2023-11-21T15:46:03;7.90;99.90
54832;DHT22;40730;53.068;6.572;2023-11-21T15:48:36;7.90;99.90
54832;DHT22;40730;53.068;6.572;2023-11-21T15:51:04;7.90;99.90
54832;DHT22;40730;53.068;6.572;2023-11-21T15:53:30;7.90;99.90
54832;DHT22;40730;53.068;6.572;2023-11-21T15:55:57;7.90;99.90
54832;DHT22;40730;53.068;6.572;2023-11-21T15:58:23;7.80;99.90
54832;DHT22;40730;53.068;6.572;2023-11-21T16:00:51;7.80;99.90